createdAt,value
2023-05-05T00:02:14.676Z,101750.27
2023-05-05T00:04:47.000Z,101753.03
2023-05-05T00:07:20.513Z,101748.92
2023-05-05T00:09:54.923Z,101748.45
2023-05-05T00:12:28.730Z,101746.70
2023-05-05T00:15:03.482Z,101745.80
2023-05-05T00:17:35.926Z,101743.97
2023-05-05T00:20:13.757Z,101739.90
2023-05-05T00:22:48.811Z,101739.42
2023-05-05T00:25:21.459Z,101740.02
2023-05-05T00:27:53.982Z,101733.87
2023-05-05T00:30:30.609Z,101734.58
2023-05-05T00:33:02.501Z,101745.30
2023-05-05T00:35:34.648Z,101753.76
2023-05-05T00:38:06.200Z,101754.95
2023-05-05T00:40:38.434Z,101744.52
2023-05-05T00:43:11.749Z,101745.28
2023-05-05T00:45:48.117Z,101752.08
2023-05-05T00:48:24.903Z,101748.83
2023-05-05T00:50:57.850Z,101753.94
2023-05-05T00:53:32.984Z,101751.67
2023-05-05T00:56:08.597Z,101754.65
2023-05-05T00:58:44.216Z,101750.00
2023-05-05T01:01:18.516Z,101749.86
2023-05-05T01:03:51.014Z,101743.98
2023-05-05T01:06:39.714Z,101739.67
2023-05-05T01:09:19.612Z,101743.09
2023-05-05T01:11:57.640Z,101743.95
2023-05-05T01:14:40.172Z,101745.38
2023-05-05T01:17:20.356Z,101745.19
2023-05-05T01:20:13.048Z,101739.63
2023-05-05T01:22:48.802Z,101740.43
2023-05-05T01:26:12.492Z,101743.16
2023-05-05T01:29:17.807Z,101747.56
2023-05-05T01:31:53.848Z,101749.73
2023-05-05T01:34:33.830Z,101753.11
2023-05-05T01:37:12.315Z,101749.11
2023-05-05T01:39:50.291Z,101742.73
2023-05-05T01:42:25.109Z,101740.81
2023-05-05T01:45:01.092Z,101741.54
2023-05-05T01:47:33.790Z,101735.23
2023-05-05T01:50:10.243Z,101739.97
2023-05-05T01:52:42.612Z,101743.73
2023-05-05T01:55:18.830Z,101745.17
2023-05-05T01:57:54.572Z,101738.08
2023-05-05T02:00:29.248Z,101743.77
2023-05-05T02:03:10.342Z,101746.99
2023-05-05T02:05:45.646Z,101747.33
2023-05-05T02:08:27.099Z,101745.34
2023-05-05T02:11:00.738Z,101746.25
2023-05-05T02:13:34.820Z,101741.65
2023-05-05T02:16:08.661Z,101745.05
2023-05-05T02:18:43.987Z,101744.98
2023-05-05T02:21:18.873Z,101746.09
2023-05-05T02:24:01.679Z,101747.44
2023-05-05T02:26:36.541Z,101747.70
2023-05-05T02:29:15.982Z,101752.08
2023-05-05T02:31:53.426Z,101750.31
2023-05-05T02:34:28.919Z,101752.30
2023-05-05T02:37:04.596Z,101752.52
2023-05-05T02:39:48.120Z,101749.57
2023-05-05T02:42:27.940Z,101747.64
2023-05-05T02:45:05.707Z,101746.30
2023-05-05T02:47:40.266Z,101751.88
2023-05-05T02:50:13.901Z,101755.67
2023-05-05T02:52:54.078Z,101755.95
2023-05-05T02:55:33.234Z,101752.23
2023-05-05T02:58:09.451Z,101757.77
2023-05-05T03:00:54.779Z,101757.83
2023-05-05T03:03:32.167Z,101756.88
2023-05-05T03:06:14.947Z,101758.05
2023-05-05T03:08:59.375Z,101760.02
2023-05-05T03:11:37.281Z,101769.36
2023-05-05T03:14:13.199Z,101770.91
2023-05-05T03:16:47.904Z,101770.23
2023-05-05T03:19:31.689Z,101770.45
2023-05-05T03:22:06.670Z,101776.00
2023-05-05T03:24:39.151Z,101776.05
2023-05-05T03:27:18.105Z,101776.55
2023-05-05T03:29:49.066Z,101779.77
2023-05-05T03:32:25.305Z,101783.07
2023-05-05T03:34:59.700Z,101783.41
2023-05-05T03:37:37.653Z,101786.86
2023-05-05T03:40:14.784Z,101784.88
2023-05-05T03:42:47.373Z,101785.41
2023-05-05T03:45:22.525Z,101785.34
2023-05-05T03:47:54.346Z,101784.92
2023-05-05T03:50:26.557Z,101787.60
2023-05-05T03:53:01.301Z,101787.61
2023-05-05T03:55:36.194Z,101785.87
2023-05-05T03:58:08.328Z,101786.11
2023-05-05T04:00:41.272Z,101794.21
2023-05-05T04:03:18.317Z,101799.89
2023-05-05T04:05:50.454Z,101800.93
2023-05-05T04:08:24.204Z,101801.37
2023-05-05T04:10:57.941Z,101803.13
2023-05-05T04:13:32.698Z,101804.42
2023-05-05T04:16:06.044Z,101802.29
2023-05-05T04:18:37.942Z,101802.94
2023-05-05T04:21:11.001Z,101807.57
2023-05-05T04:23:40.982Z,101809.72
2023-05-05T04:26:13.393Z,101807.75
2023-05-05T04:28:45.841Z,101810.94
2023-05-05T04:31:19.203Z,101817.91
2023-05-05T04:33:51.078Z,101821.59
2023-05-05T04:36:24.154Z,101826.67
2023-05-05T04:38:56.260Z,101825.41
2023-05-05T04:41:30.516Z,101826.42
2023-05-05T04:43:59.854Z,101821.16
2023-05-05T04:46:31.726Z,101824.08
2023-05-05T04:49:05.289Z,101828.66
2023-05-05T04:51:42.980Z,101827.45
2023-05-05T04:54:12.873Z,101828.45
2023-05-05T04:56:46.035Z,101831.96
2023-05-05T04:59:19.772Z,101833.81
2023-05-05T05:01:58.295Z,101832.67
2023-05-05T05:04:28.830Z,101832.89
2023-05-05T05:07:01.747Z,101840.23
2023-05-05T05:09:35.855Z,101838.57
2023-05-05T05:12:11.531Z,101839.86
2023-05-05T05:14:44.630Z,101837.77
2023-05-05T05:17:16.511Z,101838.13
2023-05-05T05:19:48.139Z,101838.75
2023-05-05T05:22:22.722Z,101837.80
2023-05-05T05:24:55.805Z,101838.91
2023-05-05T05:27:27.829Z,101842.56
2023-05-05T05:29:59.371Z,101841.84
2023-05-05T05:32:33.334Z,101845.29
2023-05-05T05:35:09.824Z,101846.64
2023-05-05T05:37:46.528Z,101852.39
2023-05-05T05:40:22.796Z,101855.30
2023-05-05T05:43:13.662Z,101858.00
2023-05-05T05:45:46.991Z,101860.77
2023-05-05T05:48:24.437Z,101862.58
2023-05-05T05:50:57.738Z,101855.80
2023-05-05T05:53:30.525Z,101855.01
2023-05-05T05:56:10.413Z,101858.20
2023-05-05T05:58:43.270Z,101858.55
2023-05-05T06:01:18.776Z,101859.28
2023-05-05T06:03:52.571Z,101864.10
2023-05-05T06:06:27.438Z,101861.25
2023-05-05T06:09:00.303Z,101863.20
2023-05-05T06:11:33.522Z,101869.73
2023-05-05T06:14:06.423Z,101868.67
2023-05-05T06:16:39.702Z,101872.02
2023-05-05T06:19:15.169Z,101876.48
2023-05-05T06:21:48.373Z,101880.00
2023-05-05T06:24:22.011Z,101876.20
2023-05-05T06:26:53.457Z,101881.34
2023-05-05T06:29:25.227Z,101883.64
2023-05-05T06:31:57.654Z,101882.90
2023-05-05T06:34:30.132Z,101892.35
2023-05-05T06:37:02.242Z,101897.06
2023-05-05T06:39:37.386Z,101893.20
2023-05-05T06:42:10.294Z,101898.63
2023-05-05T06:44:42.145Z,101900.75
2023-05-05T06:47:14.875Z,101900.11
2023-05-05T06:49:46.412Z,101907.11
2023-05-05T06:52:18.996Z,101905.88
2023-05-05T06:54:50.106Z,101907.58
2023-05-05T06:57:26.313Z,101905.27
2023-05-05T06:59:57.137Z,101907.11
2023-05-05T07:02:30.784Z,101906.14
2023-05-05T07:05:02.542Z,101905.52
2023-05-05T07:07:35.248Z,101904.69
2023-05-05T07:10:09.738Z,101905.80
2023-05-05T07:12:45.752Z,101905.70
2023-05-05T07:15:27.993Z,101904.92
2023-05-05T07:18:02.341Z,101906.95
2023-05-05T07:20:33.265Z,101905.15
2023-05-05T07:23:06.467Z,101907.73
2023-05-05T07:25:39.008Z,101914.92
2023-05-05T07:28:12.711Z,101912.77
2023-05-05T07:30:45.687Z,101914.87
2023-05-05T07:33:20.144Z,101920.06
2023-05-05T07:35:53.709Z,101921.45
2023-05-05T07:38:26.625Z,101928.33
2023-05-05T07:40:59.380Z,101927.01
2023-05-05T07:43:31.936Z,101929.99
2023-05-05T07:46:04.186Z,101928.04
2023-05-05T07:48:36.851Z,101927.26
2023-05-05T07:51:11.402Z,101925.92
2023-05-05T07:53:44.304Z,101924.08
2023-05-05T07:56:26.715Z,101920.92
2023-05-05T07:59:01.333Z,101923.17
2023-05-05T08:01:42.271Z,101924.88
2023-05-05T08:04:17.813Z,101926.47
2023-05-05T08:06:55.817Z,101926.89
2023-05-05T08:09:35.817Z,101929.63
2023-05-05T08:12:08.320Z,101933.01
2023-05-05T08:14:50.428Z,101939.52
2023-05-05T08:17:25.400Z,101940.34
2023-05-05T08:19:58.997Z,101940.05
2023-05-05T08:22:32.769Z,101936.89
2023-05-05T08:25:06.020Z,101940.67
2023-05-05T08:27:42.083Z,101939.05
2023-05-05T08:30:28.041Z,101940.14
2023-05-05T08:33:03.817Z,101937.27
2023-05-05T08:35:40.842Z,101937.92
2023-05-05T08:38:41.512Z,101935.67
2023-05-05T08:41:18.805Z,101939.25
2023-05-05T08:43:56.353Z,101937.66
2023-05-05T08:46:32.302Z,101945.08
2023-05-05T08:49:14.284Z,101951.35
2023-05-05T08:52:00.650Z,101945.30
2023-05-05T08:54:35.099Z,101947.46
2023-05-05T08:57:15.203Z,101946.30
2023-05-05T08:59:51.155Z,101949.77
2023-05-05T09:02:32.740Z,101945.37
2023-05-05T09:05:09.007Z,101946.94
2023-05-05T09:07:46.601Z,101948.09
2023-05-05T09:10:21.491Z,101949.73
2023-05-05T09:12:57.674Z,101954.29
2023-05-05T09:15:30.385Z,101959.02
2023-05-05T09:18:05.255Z,101955.40
2023-05-05T09:20:45.705Z,101959.35
2023-05-05T09:23:19.902Z,101954.67
2023-05-05T09:26:10.614Z,101950.42
2023-05-05T09:28:54.712Z,101948.86
2023-05-05T09:31:47.566Z,101948.02
2023-05-05T09:34:23.552Z,101955.83
2023-05-05T09:36:59.241Z,101958.42
2023-05-05T09:39:33.061Z,101959.19
2023-05-05T09:42:21.080Z,101961.23
2023-05-05T09:45:01.518Z,101965.80
2023-05-05T09:47:37.669Z,101962.20
2023-05-05T09:50:16.369Z,101962.64
2023-05-05T09:53:08.055Z,101966.63
2023-05-05T09:55:48.411Z,101969.61
2023-05-05T09:58:24.610Z,101971.50
2023-05-05T10:01:03.207Z,101969.11
2023-05-05T10:03:58.999Z,101968.23
2023-05-05T10:07:01.630Z,101960.90
2023-05-05T10:09:36.137Z,101967.27
2023-05-05T10:12:10.120Z,101968.41
2023-05-05T10:14:45.929Z,101964.46
2023-05-05T10:17:22.687Z,101966.77
2023-05-05T10:20:08.586Z,101966.55
2023-05-05T10:22:52.345Z,101967.70
2023-05-05T10:25:39.594Z,101962.63
2023-05-05T10:28:22.027Z,101957.09
2023-05-05T10:31:10.082Z,101955.59
2023-05-05T10:34:08.767Z,101956.48
2023-05-05T10:36:43.108Z,101953.89
2023-05-05T10:39:21.000Z,101956.36
2023-05-05T10:42:01.416Z,101949.13
2023-05-05T10:44:34.480Z,101951.13
2023-05-05T10:47:18.923Z,101949.56
2023-05-05T10:50:03.951Z,101951.72
2023-05-05T10:52:56.081Z,101948.70
2023-05-05T10:55:42.072Z,101946.92
2023-05-05T10:58:51.640Z,101944.63
2023-05-05T11:01:34.286Z,101941.45
2023-05-05T11:04:23.593Z,101936.61
2023-05-05T11:07:27.904Z,101937.16
2023-05-05T11:10:24.635Z,101934.45
2023-05-05T11:13:21.140Z,101931.04
2023-05-05T11:15:54.930Z,101928.44
2023-05-05T11:18:45.909Z,101928.90
2023-05-05T11:21:22.166Z,101921.84
2023-05-05T11:28:08.669Z,101912.56
2023-05-05T11:31:17.047Z,101915.20
2023-05-05T11:33:55.079Z,101914.77
2023-05-05T11:36:45.551Z,101915.53
2023-05-05T11:39:30.561Z,101912.88
2023-05-05T11:42:35.439Z,101910.64
2023-05-05T11:45:31.713Z,101914.58
2023-05-05T11:48:36.035Z,101911.11
2023-05-05T11:51:15.136Z,101907.79
2023-05-05T11:53:53.725Z,101907.22
2023-05-05T11:56:33.117Z,101906.88
2023-05-05T11:59:12.058Z,101902.30
2023-05-05T12:01:54.811Z,101898.51
2023-05-05T12:04:44.679Z,101896.34
2023-05-05T12:07:20.586Z,101890.34
2023-05-05T12:09:52.840Z,101890.23
2023-05-05T12:12:41.778Z,101887.39
2023-05-05T12:15:20.883Z,101890.83
2023-05-05T12:17:57.151Z,101888.19
2023-05-05T12:20:42.609Z,101880.36
2023-05-05T12:23:17.659Z,101877.14
2023-05-05T12:25:51.691Z,101875.67
2023-05-05T12:28:47.612Z,101876.17
2023-05-05T12:31:22.772Z,101872.98
2023-05-05T12:33:59.415Z,101872.63
2023-05-05T12:36:36.463Z,101870.63
2023-05-05T12:39:07.812Z,101866.99
2023-05-05T12:41:42.245Z,101864.58
2023-05-05T12:44:20.129Z,101863.87
2023-05-05T12:46:57.039Z,101863.65
2023-05-05T12:49:28.112Z,101863.17
2023-05-05T12:52:04.641Z,101863.11
2023-05-05T12:54:52.942Z,101860.73
2023-05-05T12:57:30.461Z,101855.17
2023-05-05T13:00:17.176Z,101852.13
2023-05-05T13:02:57.448Z,101850.39
2023-05-05T13:05:41.067Z,101845.58
2023-05-05T13:08:13.738Z,101843.58
2023-05-05T13:11:01.511Z,101845.26
2023-05-05T13:13:36.853Z,101838.55
2023-05-05T13:16:21.776Z,101841.10
2023-05-05T13:18:59.270Z,101842.25
2023-05-05T13:21:34.394Z,101838.36
2023-05-05T13:24:23.715Z,101839.25
2023-05-05T13:27:04.976Z,101833.83
2023-05-05T13:29:41.346Z,101827.58
2023-05-05T13:32:19.032Z,101822.03
2023-05-05T13:34:49.892Z,101828.23
2023-05-05T13:37:29.096Z,101826.10
2023-05-05T13:40:08.642Z,101827.65
2023-05-05T13:42:45.982Z,101824.70
2023-05-05T13:45:19.587Z,101821.23
2023-05-05T13:47:54.864Z,101818.90
2023-05-05T13:50:31.482Z,101815.27
2023-05-05T13:53:06.012Z,101812.05
2023-05-05T13:55:40.378Z,101812.89
2023-05-05T13:58:22.109Z,101809.75
2023-05-05T14:00:55.960Z,101809.38
2023-05-05T14:03:34.137Z,101807.17
2023-05-05T14:06:11.506Z,101801.98
2023-05-05T14:08:50.500Z,101801.49
2023-05-05T14:11:23.786Z,101801.67
2023-05-05T14:13:57.850Z,101797.70
2023-05-05T14:16:29.868Z,101797.63
2023-05-05T14:19:03.962Z,101797.27
2023-05-05T14:21:37.907Z,101795.52
2023-05-05T14:24:10.321Z,101796.95
2023-05-05T14:26:49.291Z,101799.89
2023-05-05T14:29:22.939Z,101804.73
2023-05-05T14:31:55.107Z,101801.86
2023-05-05T14:34:28.033Z,101797.63
2023-05-05T14:37:02.032Z,101792.67
2023-05-05T14:39:34.974Z,101786.98
2023-05-05T14:42:07.972Z,101789.52
2023-05-05T14:44:39.854Z,101789.89
2023-05-05T14:47:11.712Z,101786.10
2023-05-05T14:49:44.147Z,101786.80
2023-05-05T14:52:16.739Z,101785.78
2023-05-05T14:54:49.151Z,101786.00
2023-05-05T14:57:21.737Z,101787.05
2023-05-05T14:59:55.171Z,101781.31
2023-05-05T15:02:25.765Z,101778.56
2023-05-05T15:04:58.550Z,101782.37
2023-05-05T15:07:30.407Z,101778.59
2023-05-05T15:10:02.013Z,101777.46
2023-05-05T15:12:37.643Z,101771.64
2023-05-05T15:15:12.472Z,101770.10
2023-05-05T15:17:46.160Z,101770.69
2023-05-05T15:20:21.016Z,101771.04
2023-05-05T15:22:54.853Z,101774.93
2023-05-05T15:25:27.622Z,101774.77
2023-05-05T15:28:05.360Z,101768.02
2023-05-05T15:30:42.559Z,101766.71
2023-05-05T15:33:17.181Z,101768.11
2023-05-05T15:35:52.192Z,101766.73
2023-05-05T15:38:25.537Z,101763.33
2023-05-05T15:40:58.025Z,101764.23
2023-05-05T15:43:36.017Z,101762.02
2023-05-05T15:46:09.177Z,101768.40
2023-05-05T15:48:42.777Z,101771.20
2023-05-05T15:51:21.715Z,101770.00
2023-05-05T15:53:58.146Z,101765.02
2023-05-05T15:56:40.001Z,101764.40
2023-05-05T15:59:14.064Z,101760.46
2023-05-05T16:01:47.181Z,101760.55
2023-05-05T16:04:20.272Z,101758.73
2023-05-05T16:06:54.266Z,101756.36
2023-05-05T16:09:31.458Z,101753.72
2023-05-05T16:12:09.466Z,101750.61
2023-05-05T16:14:41.881Z,101753.70
2023-05-05T16:17:15.506Z,101753.00
2023-05-05T16:19:50.590Z,101754.73
2023-05-05T16:22:28.217Z,101753.66
2023-05-05T16:25:02.989Z,101754.25
2023-05-05T16:27:35.218Z,101749.86
2023-05-05T16:30:15.568Z,101747.04
2023-05-05T16:32:51.420Z,101741.02
2023-05-05T16:35:23.977Z,101740.59
2023-05-05T16:37:58.068Z,101737.02
2023-05-05T16:40:30.352Z,101735.76
2023-05-05T16:43:03.230Z,101737.50
2023-05-05T16:45:34.826Z,101736.42
2023-05-05T16:48:09.212Z,101736.40
2023-05-05T16:50:42.242Z,101737.63
2023-05-05T16:53:13.939Z,101739.98
2023-05-05T16:55:48.755Z,101741.53
2023-05-05T16:58:22.484Z,101741.04
2023-05-05T17:00:55.766Z,101741.92
2023-05-05T17:03:28.589Z,101743.78
2023-05-05T17:06:04.017Z,101743.05
2023-05-05T17:08:36.361Z,101747.92
2023-05-05T17:11:10.168Z,101751.77
2023-05-05T17:13:43.052Z,101755.13
2023-05-05T17:16:16.235Z,101757.91
2023-05-05T17:18:47.874Z,101767.19
2023-05-05T17:21:20.098Z,101767.66
2023-05-05T17:23:51.995Z,101773.51
2023-05-05T17:26:24.701Z,101778.86
2023-05-05T17:28:56.970Z,101776.79
2023-05-05T17:31:32.091Z,101777.86
2023-05-05T17:34:04.515Z,101776.73
2023-05-05T17:36:57.555Z,101772.52
2023-05-05T17:39:32.483Z,101772.23
2023-05-05T17:42:05.101Z,101770.08
2023-05-05T17:44:38.573Z,101772.25
2023-05-05T17:47:08.566Z,101774.30
2023-05-05T17:49:40.003Z,101776.48
2023-05-05T17:52:12.125Z,101776.31
2023-05-05T17:54:48.474Z,101775.84
2023-05-05T17:57:21.530Z,101781.27
2023-05-05T17:59:57.981Z,101791.49
2023-05-05T18:02:32.894Z,101793.69
2023-05-05T18:05:03.821Z,101792.36
2023-05-05T18:07:40.705Z,101796.74
2023-05-05T18:10:14.932Z,101799.17
2023-05-05T18:12:48.151Z,101804.54
2023-05-05T18:15:26.981Z,101808.88
2023-05-05T18:17:59.593Z,101807.45
2023-05-05T18:20:32.538Z,101811.19
2023-05-05T18:23:05.387Z,101805.90
2023-05-05T18:25:41.078Z,101806.97
2023-05-05T18:28:15.444Z,101807.22
2023-05-05T18:30:48.893Z,101804.44
2023-05-05T18:33:20.418Z,101815.30
2023-05-05T18:35:57.167Z,101819.75
2023-05-05T18:38:28.027Z,101827.79
2023-05-05T18:41:01.202Z,101830.90
2023-05-05T18:43:38.049Z,101834.63
2023-05-05T18:46:11.314Z,101841.46
2023-05-05T18:48:42.303Z,101842.09
2023-05-05T18:51:15.905Z,101841.16
2023-05-05T18:53:51.803Z,101839.70
2023-05-05T18:56:23.607Z,101839.62
2023-05-05T18:58:55.741Z,101840.31
2023-05-05T19:01:32.944Z,101839.42
2023-05-05T19:04:18.789Z,101843.95
2023-05-05T19:06:59.489Z,101839.06
2023-05-05T19:09:32.252Z,101834.36
2023-05-05T19:12:03.421Z,101837.16
2023-05-05T19:14:39.422Z,101837.96
2023-05-05T19:17:11.705Z,101836.49
2023-05-05T19:19:47.191Z,101835.73
2023-05-05T19:22:21.354Z,101826.92
2023-05-05T19:24:54.640Z,101830.48
2023-05-05T19:27:33.912Z,101830.00
2023-05-05T19:30:06.561Z,101837.40
2023-05-05T19:32:40.809Z,101841.30
2023-05-05T19:35:14.005Z,101841.17
2023-05-05T19:37:46.876Z,101842.38
2023-05-05T19:40:18.779Z,101843.35
2023-05-05T19:42:52.026Z,101845.74
2023-05-05T19:45:29.311Z,101846.51
2023-05-05T19:48:04.186Z,101848.63
2023-05-05T19:50:35.592Z,101851.14
2023-05-05T19:53:06.135Z,101850.92
2023-05-05T19:55:39.606Z,101854.36
2023-05-05T19:58:13.090Z,101856.80
2023-05-05T20:00:48.599Z,101857.61
2023-05-05T20:03:21.306Z,101851.46
2023-05-05T20:06:04.528Z,101852.89
2023-05-05T20:08:38.779Z,101854.11
2023-05-05T20:11:12.617Z,101849.37
2023-05-05T20:13:47.732Z,101841.61
2023-05-05T20:16:24.368Z,101845.91
2023-05-05T20:18:56.600Z,101843.13
2023-05-05T20:21:28.542Z,101844.64
2023-05-05T20:24:05.314Z,101839.55
2023-05-05T20:26:39.521Z,101843.44
2023-05-05T20:29:14.731Z,101840.85
2023-05-05T20:31:47.832Z,101835.17
2023-05-05T20:34:25.378Z,101830.64
2023-05-05T20:37:00.138Z,101833.00
2023-05-05T20:39:37.570Z,101833.87
2023-05-05T20:42:07.773Z,101833.05
2023-05-05T20:44:41.602Z,101833.30
2023-05-05T20:47:22.352Z,101833.74
2023-05-05T20:49:54.490Z,101829.33
2023-05-05T20:52:27.684Z,101830.93
2023-05-05T20:55:01.250Z,101830.42
2023-05-05T20:57:32.041Z,101831.14
2023-05-05T21:00:05.383Z,101832.21
2023-05-05T21:02:40.309Z,101831.82
2023-05-05T21:05:14.550Z,101835.48
2023-05-05T21:07:46.654Z,101832.82
2023-05-05T21:10:20.261Z,101829.23
2023-05-05T21:12:52.907Z,101829.40
2023-05-05T21:15:26.588Z,101827.52
2023-05-05T21:17:59.277Z,101826.00
2023-05-05T21:20:32.715Z,101828.92
2023-05-05T21:23:05.906Z,101829.02
2023-05-05T21:25:38.062Z,101827.14
2023-05-05T21:28:10.599Z,101825.95
2023-05-05T21:30:43.708Z,101821.36
2023-05-05T21:33:15.188Z,101823.71
2023-05-05T21:35:46.689Z,101825.29
2023-05-05T21:38:21.751Z,101824.05
2023-05-05T21:40:58.515Z,101829.88
2023-05-05T21:43:39.350Z,101833.31
2023-05-05T21:46:12.521Z,101834.36
2023-05-05T21:48:43.594Z,101833.81
2023-05-05T21:51:14.877Z,101830.61
2023-05-05T21:53:47.595Z,101835.10
2023-05-05T21:56:20.323Z,101835.17
2023-05-05T21:58:54.175Z,101834.95
2023-05-05T22:01:26.629Z,101835.90
2023-05-05T22:03:59.305Z,101830.74
2023-05-05T22:06:32.671Z,101826.90
2023-05-05T22:09:05.327Z,101824.39
2023-05-05T22:11:37.406Z,101819.91
2023-05-05T22:14:08.351Z,101820.03
2023-05-05T22:16:42.464Z,101819.39
2023-05-05T22:19:13.703Z,101820.20
2023-05-05T22:21:45.961Z,101816.41
2023-05-05T22:24:19.796Z,101816.13
2023-05-05T22:26:51.672Z,101813.95
2023-05-05T22:29:26.863Z,101808.27
2023-05-05T22:31:56.841Z,101808.46
2023-05-05T22:34:30.026Z,101805.19
2023-05-05T22:37:01.872Z,101802.25
2023-05-05T22:39:35.480Z,101798.89
2023-05-05T22:42:10.798Z,101793.98
2023-05-05T22:44:43.237Z,101786.15
2023-05-05T22:47:14.667Z,101786.45
2023-05-05T22:49:46.933Z,101781.94
2023-05-05T22:52:18.824Z,101777.91
2023-05-05T22:54:52.255Z,101776.54
2023-05-05T22:57:24.859Z,101776.61
2023-05-05T22:59:57.665Z,101772.49
2023-05-05T23:02:31.807Z,101768.61
2023-05-05T23:05:04.121Z,101769.40
2023-05-05T23:07:37.056Z,101772.77
2023-05-05T23:10:11.471Z,101773.35
2023-05-05T23:12:44.860Z,101772.41
2023-05-05T23:15:17.467Z,101768.91
2023-05-05T23:17:48.494Z,101766.77
2023-05-05T23:20:21.131Z,101764.52
2023-05-05T23:22:53.345Z,101765.27
2023-05-05T23:25:25.018Z,101766.37
2023-05-05T23:27:56.601Z,101774.24
2023-05-05T23:30:29.163Z,101775.77
2023-05-05T23:33:05.129Z,101775.70
2023-05-05T23:35:38.840Z,101773.26
2023-05-05T23:38:13.097Z,101771.83
2023-05-05T23:40:44.153Z,101771.63
2023-05-05T23:43:18.570Z,101770.67
2023-05-05T23:45:51.211Z,101771.55
2023-05-05T23:48:22.724Z,101769.34
2023-05-05T23:50:54.431Z,101768.70
2023-05-05T23:53:27.560Z,101766.16
2023-05-05T23:55:58.618Z,101769.95
2023-05-05T23:58:30.383Z,101766.90
